sensor_id;sensor_type;location;lat;lon;timestamp;P1;durP1;ratioP1;P2;durP2;ratioP2
3133;SDS011;1577;49.912;10.924;2022-12-07T00:02:09;16.60;;;5.30;;
3133;SDS011;1577;49.912;10.924;2022-12-07T00:04:35;17.67;;;5.70;;
3133;SDS011;1577;49.912;10.924;2022-12-07T00:07:05;16.40;;;5.20;;
3133;SDS011;1577;49.912;10.924;2022-12-07T00:09:31;16.87;;;5.63;;
3133;SDS011;1577;49.912;10.924;2022-12-07T00:11:57;20.20;;;5.47;;
3133;SDS011;1577;49.912;10.924;2022-12-07T00:14:23;19.20;;;6.70;;
3133;SDS011;1577;49.912;10.924;2022-12-07T00:16:49;16.77;;;6.10;;
3133;SDS011;1577;49.912;10.924;2022-12-07T00:19:16;15.50;;;5.60;;
3133;SDS011;1577;49.912;10.924;2022-12-07T00:21:42;19.07;;;5.77;;
3133;SDS011;1577;49.912;10.924;2022-12-07T00:24:09;18.03;;;5.17;;
3133;SDS011;1577;49.912;10.924;2022-12-07T00:26:36;19.57;;;6.40;;
3133;SDS011;1577;49.912;10.924;2022-12-07T00:29:04;17.53;;;5.80;;
3133;SDS011;1577;49.912;10.924;2022-12-07T00:31:34;19.10;;;5.93;;
3133;SDS011;1577;49.912;10.924;2022-12-07T00:34:03;18.00;;;6.20;;
3133;SDS011;1577;49.912;10.924;2022-12-07T00:36:29;19.87;;;6.30;;
3133;SDS011;1577;49.912;10.924;2022-12-07T00:38:57;17.87;;;5.60;;
3133;SDS011;1577;49.912;10.924;2022-12-07T00:41:23;20.13;;;6.50;;
3133;SDS011;1577;49.912;10.924;2022-12-07T00:43:50;17.50;;;6.07;;
3133;SDS011;1577;49.912;10.924;2022-12-07T00:46:17;18.43;;;6.07;;
3133;SDS011;1577;49.912;10.924;2022-12-07T00:48:43;18.07;;;5.50;;
3133;SDS011;1577;49.912;10.924;2022-12-07T00:51:09;19.50;;;6.27;;
3133;SDS011;1577;49.912;10.924;2022-12-07T00:53:36;17.43;;;6.50;;
3133;SDS011;1577;49.912;10.924;2022-12-07T00:56:06;18.70;;;6.40;;
3133;SDS011;1577;49.912;10.924;2022-12-07T00:58:32;20.30;;;6.10;;
3133;SDS011;1577;49.912;10.924;2022-12-07T01:01:01;19.10;;;6.73;;
3133;SDS011;1577;49.912;10.924;2022-12-07T01:03:27;17.80;;;5.90;;
3133;SDS011;1577;49.912;10.924;2022-12-07T01:05:54;18.30;;;5.90;;
3133;SDS011;1577;49.912;10.924;2022-12-07T01:08:20;18.60;;;6.73;;
3133;SDS011;1577;49.912;10.924;2022-12-07T01:10:47;18.87;;;6.53;;
3133;SDS011;1577;49.912;10.924;2022-12-07T01:13:13;18.33;;;6.30;;
3133;SDS011;1577;49.912;10.924;2022-12-07T01:15:43;18.33;;;6.40;;
3133;SDS011;1577;49.912;10.924;2022-12-07T01:18:09;18.87;;;6.40;;
3133;SDS011;1577;49.912;10.924;2022-12-07T01:20:35;19.27;;;6.73;;
3133;SDS011;1577;49.912;10.924;2022-12-07T01:23:01;21.47;;;6.70;;
3133;SDS011;1577;49.912;10.924;2022-12-07T01:25:27;22.00;;;6.00;;
3133;SDS011;1577;49.912;10.924;2022-12-07T01:27:53;18.90;;;6.30;;
3133;SDS011;1577;49.912;10.924;2022-12-07T01:30:19;23.80;;;6.00;;
3133;SDS011;1577;49.912;10.924;2022-12-07T01:32:45;20.03;;;6.30;;
3133;SDS011;1577;49.912;10.924;2022-12-07T01:35:11;21.90;;;7.67;;
3133;SDS011;1577;49.912;10.924;2022-12-07T01:37:37;22.80;;;7.50;;
3133;SDS011;1577;49.912;10.924;2022-12-07T01:40:05;21.37;;;7.17;;
3133;SDS011;1577;49.912;10.924;2022-12-07T01:42:33;20.58;;;6.90;;
3133;SDS011;1577;49.912;10.924;2022-12-07T01:45:25;21.57;;;6.87;;
3133;SDS011;1577;49.912;10.924;2022-12-07T01:47:57;20.63;;;7.22;;
3133;SDS011;1577;49.912;10.924;2022-12-07T01:50:24;21.93;;;7.57;;
3133;SDS011;1577;49.912;10.924;2022-12-07T01:52:52;19.67;;;6.60;;
3133;SDS011;1577;49.912;10.924;2022-12-07T01:55:19;21.67;;;6.05;;
3133;SDS011;1577;49.912;10.924;2022-12-07T01:57:47;19.83;;;6.43;;
3133;SDS011;1577;49.912;10.924;2022-12-07T02:00:14;19.30;;;7.00;;
3133;SDS011;1577;49.912;10.924;2022-12-07T02:02:45;19.60;;;5.73;;
3133;SDS011;1577;49.912;10.924;2022-12-07T02:05:12;21.03;;;6.37;;
3133;SDS011;1577;49.912;10.924;2022-12-07T02:07:38;22.27;;;7.22;;
3133;SDS011;1577;49.912;10.924;2022-12-07T02:13:07;30.27;;;7.82;;
3133;SDS011;1577;49.912;10.924;2022-12-07T02:15:53;21.33;;;6.83;;
3133;SDS011;1577;49.912;10.924;2022-12-07T02:18:25;21.80;;;7.17;;
3133;SDS011;1577;49.912;10.924;2022-12-07T02:26:45;19.50;;;6.30;;
3133;SDS011;1577;49.912;10.924;2022-12-07T02:31:48;23.47;;;7.07;;
3133;SDS011;1577;49.912;10.924;2022-12-07T02:36:46;23.30;;;7.10;;
3133;SDS011;1577;49.912;10.924;2022-12-07T02:39:20;24.10;;;7.30;;
3133;SDS011;1577;49.912;10.924;2022-12-07T02:41:54;23.02;;;7.03;;
3133;SDS011;1577;49.912;10.924;2022-12-07T02:44:23;27.73;;;6.67;;
3133;SDS011;1577;49.912;10.924;2022-12-07T02:46:59;23.38;;;6.50;;
3133;SDS011;1577;49.912;10.924;2022-12-07T02:49:29;24.73;;;7.80;;
3133;SDS011;1577;49.912;10.924;2022-12-07T02:51:55;24.53;;;7.60;;
3133;SDS011;1577;49.912;10.924;2022-12-07T02:54:21;23.67;;;7.38;;
3133;SDS011;1577;49.912;10.924;2022-12-07T03:07:02;31.77;;;7.80;;
3133;SDS011;1577;49.912;10.924;2022-12-07T03:09:32;28.57;;;7.90;;
3133;SDS011;1577;49.912;10.924;2022-12-07T03:14:34;31.05;;;8.65;;
3133;SDS011;1577;49.912;10.924;2022-12-07T03:17:01;27.60;;;6.75;;
3133;SDS011;1577;49.912;10.924;2022-12-07T03:19:30;30.02;;;7.97;;
3133;SDS011;1577;49.912;10.924;2022-12-07T03:21:57;34.80;;;9.45;;
3133;SDS011;1577;49.912;10.924;2022-12-07T03:24:39;34.65;;;8.50;;
3133;SDS011;1577;49.912;10.924;2022-12-07T03:27:19;33.40;;;8.05;;
3133;SDS011;1577;49.912;10.924;2022-12-07T03:29:51;34.20;;;8.40;;
3133;SDS011;1577;49.912;10.924;2022-12-07T03:32:21;35.55;;;8.75;;
3133;SDS011;1577;49.912;10.924;2022-12-07T03:34:54;35.15;;;9.20;;
3133;SDS011;1577;49.912;10.924;2022-12-07T03:37:26;34.08;;;8.73;;
3133;SDS011;1577;49.912;10.924;2022-12-07T03:40:07;36.17;;;7.97;;
3133;SDS011;1577;49.912;10.924;2022-12-07T03:42:40;35.23;;;8.37;;
3133;SDS011;1577;49.912;10.924;2022-12-07T03:45:06;33.87;;;8.33;;
3133;SDS011;1577;49.912;10.924;2022-12-07T03:47:33;36.13;;;9.35;;
3133;SDS011;1577;49.912;10.924;2022-12-07T03:52:47;35.45;;;8.65;;
3133;SDS011;1577;49.912;10.924;2022-12-07T03:55:27;34.20;;;8.37;;
3133;SDS011;1577;49.912;10.924;2022-12-07T03:57:54;35.42;;;8.80;;
3133;SDS011;1577;49.912;10.924;2022-12-07T04:00:21;36.35;;;8.57;;
3133;SDS011;1577;49.912;10.924;2022-12-07T04:02:53;36.00;;;9.47;;
3133;SDS011;1577;49.912;10.924;2022-12-07T04:05:19;34.80;;;8.30;;
3133;SDS011;1577;49.912;10.924;2022-12-07T04:07:45;36.70;;;8.70;;
3133;SDS011;1577;49.912;10.924;2022-12-07T04:10:11;34.10;;;7.97;;
3133;SDS011;1577;49.912;10.924;2022-12-07T04:12:37;34.60;;;9.03;;
3133;SDS011;1577;49.912;10.924;2022-12-07T04:15:03;34.73;;;9.10;;
3133;SDS011;1577;49.912;10.924;2022-12-07T04:17:29;36.37;;;8.93;;
3133;SDS011;1577;49.912;10.924;2022-12-07T04:19:55;38.93;;;10.00;;
3133;SDS011;1577;49.912;10.924;2022-12-07T04:22:21;34.67;;;9.13;;
3133;SDS011;1577;49.912;10.924;2022-12-07T04:24:48;36.53;;;8.77;;
3133;SDS011;1577;49.912;10.924;2022-12-07T04:27:14;39.63;;;9.60;;
3133;SDS011;1577;49.912;10.924;2022-12-07T04:29:40;35.43;;;8.93;;
3133;SDS011;1577;49.912;10.924;2022-12-07T04:32:06;38.50;;;10.90;;
3133;SDS011;1577;49.912;10.924;2022-12-07T04:34:32;35.87;;;9.37;;
3133;SDS011;1577;49.912;10.924;2022-12-07T04:36:58;34.63;;;8.40;;
3133;SDS011;1577;49.912;10.924;2022-12-07T04:39:25;37.03;;;8.98;;
3133;SDS011;1577;49.912;10.924;2022-12-07T04:41:52;41.10;;;9.57;;
3133;SDS011;1577;49.912;10.924;2022-12-07T04:44:18;35.90;;;8.37;;
3133;SDS011;1577;49.912;10.924;2022-12-07T04:46:45;35.17;;;8.93;;
3133;SDS011;1577;49.912;10.924;2022-12-07T04:49:11;36.17;;;10.43;;
3133;SDS011;1577;49.912;10.924;2022-12-07T04:51:37;35.60;;;8.50;;
3133;SDS011;1577;49.912;10.924;2022-12-07T04:54:03;35.30;;;9.53;;
3133;SDS011;1577;49.912;10.924;2022-12-07T04:56:30;37.47;;;9.53;;
3133;SDS011;1577;49.912;10.924;2022-12-07T04:58:56;36.07;;;8.97;;
3133;SDS011;1577;49.912;10.924;2022-12-07T05:01:22;36.33;;;8.57;;
3133;SDS011;1577;49.912;10.924;2022-12-07T05:03:48;33.27;;;7.77;;
3133;SDS011;1577;49.912;10.924;2022-12-07T05:06:14;34.53;;;7.67;;
3133;SDS011;1577;49.912;10.924;2022-12-07T05:08:40;35.73;;;9.07;;
3133;SDS011;1577;49.912;10.924;2022-12-07T05:11:08;33.77;;;8.50;;
3133;SDS011;1577;49.912;10.924;2022-12-07T05:13:34;36.72;;;10.02;;
3133;SDS011;1577;49.912;10.924;2022-12-07T05:16:01;37.30;;;8.95;;
3133;SDS011;1577;49.912;10.924;2022-12-07T05:18:27;35.53;;;9.18;;
3133;SDS011;1577;49.912;10.924;2022-12-07T05:20:53;36.40;;;9.80;;
3133;SDS011;1577;49.912;10.924;2022-12-07T05:23:19;35.40;;;9.60;;
3133;SDS011;1577;49.912;10.924;2022-12-07T05:25:46;38.60;;;9.23;;
3133;SDS011;1577;49.912;10.924;2022-12-07T05:28:12;34.80;;;9.07;;
3133;SDS011;1577;49.912;10.924;2022-12-07T05:30:38;33.93;;;9.30;;
3133;SDS011;1577;49.912;10.924;2022-12-07T05:33:04;35.20;;;8.60;;
3133;SDS011;1577;49.912;10.924;2022-12-07T05:35:30;33.60;;;8.40;;
3133;SDS011;1577;49.912;10.924;2022-12-07T05:37:56;35.97;;;9.50;;
3133;SDS011;1577;49.912;10.924;2022-12-07T05:40:23;34.77;;;9.30;;
3133;SDS011;1577;49.912;10.924;2022-12-07T05:42:52;37.33;;;10.57;;
3133;SDS011;1577;49.912;10.924;2022-12-07T05:45:18;34.70;;;9.17;;
3133;SDS011;1577;49.912;10.924;2022-12-07T05:47:44;41.30;;;9.85;;
3133;SDS011;1577;49.912;10.924;2022-12-07T05:50:10;35.00;;;9.10;;
3133;SDS011;1577;49.912;10.924;2022-12-07T05:52:36;36.45;;;9.55;;
3133;SDS011;1577;49.912;10.924;2022-12-07T05:55:02;34.17;;;9.43;;
3133;SDS011;1577;49.912;10.924;2022-12-07T05:57:28;37.63;;;9.07;;
3133;SDS011;1577;49.912;10.924;2022-12-07T05:59:54;34.77;;;9.07;;
3133;SDS011;1577;49.912;10.924;2022-12-07T06:02:20;37.23;;;9.73;;
3133;SDS011;1577;49.912;10.924;2022-12-07T06:04:46;36.43;;;9.20;;
3133;SDS011;1577;49.912;10.924;2022-12-07T06:07:16;37.07;;;10.63;;
3133;SDS011;1577;49.912;10.924;2022-12-07T06:09:42;38.13;;;10.70;;
3133;SDS011;1577;49.912;10.924;2022-12-07T06:12:11;36.08;;;10.23;;
3133;SDS011;1577;49.912;10.924;2022-12-07T06:14:56;34.70;;;8.60;;
3133;SDS011;1577;49.912;10.924;2022-12-07T06:17:23;39.67;;;10.88;;
3133;SDS011;1577;49.912;10.924;2022-12-07T06:19:49;38.25;;;9.90;;
3133;SDS011;1577;49.912;10.924;2022-12-07T06:22:15;37.57;;;9.80;;
3133;SDS011;1577;49.912;10.924;2022-12-07T06:24:41;38.55;;;11.20;;
3133;SDS011;1577;49.912;10.924;2022-12-07T06:27:08;34.53;;;10.50;;
3133;SDS011;1577;49.912;10.924;2022-12-07T06:29:34;32.78;;;9.07;;
3133;SDS011;1577;49.912;10.924;2022-12-07T06:32:00;37.17;;;11.50;;
3133;SDS011;1577;49.912;10.924;2022-12-07T06:34:26;37.97;;;11.07;;
3133;SDS011;1577;49.912;10.924;2022-12-07T06:36:52;40.00;;;12.03;;
3133;SDS011;1577;49.912;10.924;2022-12-07T06:39:21;48.55;;;23.65;;
3133;SDS011;1577;49.912;10.924;2022-12-07T06:41:47;41.27;;;11.03;;
3133;SDS011;1577;49.912;10.924;2022-12-07T06:44:13;43.03;;;10.30;;
3133;SDS011;1577;49.912;10.924;2022-12-07T06:46:39;40.90;;;10.70;;
3133;SDS011;1577;49.912;10.924;2022-12-07T06:49:06;35.93;;;9.70;;
3133;SDS011;1577;49.912;10.924;2022-12-07T06:51:32;41.67;;;11.23;;
3133;SDS011;1577;49.912;10.924;2022-12-07T06:54:00;40.60;;;11.13;;
3133;SDS011;1577;49.912;10.924;2022-12-07T06:56:26;38.23;;;9.80;;
3133;SDS011;1577;49.912;10.924;2022-12-07T06:58:53;37.80;;;9.73;;
3133;SDS011;1577;49.912;10.924;2022-12-07T07:01:19;40.28;;;10.43;;
3133;SDS011;1577;49.912;10.924;2022-12-07T07:03:45;36.77;;;10.00;;
3133;SDS011;1577;49.912;10.924;2022-12-07T07:06:12;39.63;;;9.47;;
3133;SDS011;1577;49.912;10.924;2022-12-07T07:08:39;37.50;;;8.50;;
3133;SDS011;1577;49.912;10.924;2022-12-07T07:11:05;41.47;;;10.20;;
3133;SDS011;1577;49.912;10.924;2022-12-07T07:13:31;43.78;;;11.95;;
3133;SDS011;1577;49.912;10.924;2022-12-07T07:15:58;46.37;;;14.50;;
3133;SDS011;1577;49.912;10.924;2022-12-07T07:18:24;55.80;;;16.07;;
3133;SDS011;1577;49.912;10.924;2022-12-07T07:20:50;47.72;;;13.25;;
3133;SDS011;1577;49.912;10.924;2022-12-07T07:23:17;41.30;;;10.43;;
3133;SDS011;1577;49.912;10.924;2022-12-07T07:25:44;45.80;;;12.97;;
3133;SDS011;1577;49.912;10.924;2022-12-07T07:28:10;41.65;;;12.63;;
3133;SDS011;1577;49.912;10.924;2022-12-07T07:30:36;40.35;;;10.50;;
3133;SDS011;1577;49.912;10.924;2022-12-07T07:33:02;40.20;;;11.73;;
3133;SDS011;1577;49.912;10.924;2022-12-07T07:35:29;37.15;;;10.32;;
3133;SDS011;1577;49.912;10.924;2022-12-07T07:37:56;38.30;;;9.20;;
3133;SDS011;1577;49.912;10.924;2022-12-07T07:40:22;35.27;;;9.20;;
3133;SDS011;1577;49.912;10.924;2022-12-07T07:42:49;34.17;;;9.80;;
3133;SDS011;1577;49.912;10.924;2022-12-07T07:45:15;37.47;;;10.70;;
3133;SDS011;1577;49.912;10.924;2022-12-07T07:47:41;38.30;;;9.67;;
3133;SDS011;1577;49.912;10.924;2022-12-07T07:50:07;34.33;;;9.10;;
3133;SDS011;1577;49.912;10.924;2022-12-07T07:52:33;37.55;;;9.77;;
3133;SDS011;1577;49.912;10.924;2022-12-07T07:54:59;34.10;;;8.90;;
3133;SDS011;1577;49.912;10.924;2022-12-07T07:57:25;37.05;;;9.20;;
3133;SDS011;1577;49.912;10.924;2022-12-07T07:59:52;34.83;;;9.30;;
3133;SDS011;1577;49.912;10.924;2022-12-07T08:02:18;37.57;;;10.50;;
3133;SDS011;1577;49.912;10.924;2022-12-07T08:04:45;35.70;;;8.60;;
3133;SDS011;1577;49.912;10.924;2022-12-07T08:07:11;37.30;;;10.10;;
3133;SDS011;1577;49.912;10.924;2022-12-07T08:09:37;36.83;;;8.87;;
3133;SDS011;1577;49.912;10.924;2022-12-07T08:12:03;34.23;;;8.30;;
3133;SDS011;1577;49.912;10.924;2022-12-07T08:14:30;35.13;;;8.77;;
3133;SDS011;1577;49.912;10.924;2022-12-07T08:16:59;38.20;;;8.43;;
3133;SDS011;1577;49.912;10.924;2022-12-07T08:19:25;33.60;;;8.03;;
3133;SDS011;1577;49.912;10.924;2022-12-07T08:21:51;32.23;;;8.17;;
3133;SDS011;1577;49.912;10.924;2022-12-07T08:24:17;30.97;;;7.47;;
3133;SDS011;1577;49.912;10.924;2022-12-07T08:26:44;36.77;;;9.47;;
3133;SDS011;1577;49.912;10.924;2022-12-07T08:29:09;34.60;;;8.90;;
3133;SDS011;1577;49.912;10.924;2022-12-07T08:31:36;34.83;;;8.70;;
3133;SDS011;1577;49.912;10.924;2022-12-07T08:34:04;34.03;;;8.70;;
3133;SDS011;1577;49.912;10.924;2022-12-07T08:36:30;34.30;;;9.23;;
3133;SDS011;1577;49.912;10.924;2022-12-07T08:38:59;32.73;;;8.60;;
3133;SDS011;1577;49.912;10.924;2022-12-07T08:41:25;37.70;;;9.90;;
3133;SDS011;1577;49.912;10.924;2022-12-07T08:43:51;38.37;;;10.23;;
3133;SDS011;1577;49.912;10.924;2022-12-07T08:46:18;35.07;;;9.20;;
3133;SDS011;1577;49.912;10.924;2022-12-07T08:48:50;33.93;;;8.93;;
3133;SDS011;1577;49.912;10.924;2022-12-07T08:51:17;34.07;;;9.70;;
3133;SDS011;1577;49.912;10.924;2022-12-07T08:53:43;34.00;;;9.20;;
3133;SDS011;1577;49.912;10.924;2022-12-07T08:56:09;34.37;;;9.13;;
3133;SDS011;1577;49.912;10.924;2022-12-07T08:58:36;32.27;;;9.13;;
3133;SDS011;1577;49.912;10.924;2022-12-07T09:01:03;35.00;;;9.17;;
3133;SDS011;1577;49.912;10.924;2022-12-07T09:03:29;35.60;;;9.57;;
3133;SDS011;1577;49.912;10.924;2022-12-07T09:05:55;38.60;;;9.53;;
3133;SDS011;1577;49.912;10.924;2022-12-07T09:08:22;32.50;;;8.37;;
3133;SDS011;1577;49.912;10.924;2022-12-07T09:10:50;34.90;;;9.30;;
3133;SDS011;1577;49.912;10.924;2022-12-07T09:13:16;36.03;;;9.27;;
3133;SDS011;1577;49.912;10.924;2022-12-07T09:15:42;33.60;;;8.93;;
3133;SDS011;1577;49.912;10.924;2022-12-07T09:18:08;35.23;;;9.47;;
3133;SDS011;1577;49.912;10.924;2022-12-07T09:20:34;34.37;;;8.53;;
3133;SDS011;1577;49.912;10.924;2022-12-07T09:23:00;32.73;;;9.00;;
3133;SDS011;1577;49.912;10.924;2022-12-07T09:25:26;35.57;;;9.80;;
3133;SDS011;1577;49.912;10.924;2022-12-07T09:27:56;35.17;;;9.87;;
3133;SDS011;1577;49.912;10.924;2022-12-07T09:30:22;32.07;;;9.07;;
3133;SDS011;1577;49.912;10.924;2022-12-07T09:32:48;31.33;;;8.50;;
3133;SDS011;1577;49.912;10.924;2022-12-07T09:35:14;32.43;;;9.83;;
3133;SDS011;1577;49.912;10.924;2022-12-07T09:37:40;34.50;;;9.90;;
3133;SDS011;1577;49.912;10.924;2022-12-07T09:40:06;33.97;;;9.97;;
3133;SDS011;1577;49.912;10.924;2022-12-07T09:42:34;35.47;;;9.80;;
3133;SDS011;1577;49.912;10.924;2022-12-07T09:45:01;35.20;;;9.70;;
3133;SDS011;1577;49.912;10.924;2022-12-07T09:47:27;35.80;;;10.37;;
3133;SDS011;1577;49.912;10.924;2022-12-07T09:49:55;32.40;;;10.00;;
3133;SDS011;1577;49.912;10.924;2022-12-07T09:52:27;32.80;;;10.10;;
3133;SDS011;1577;49.912;10.924;2022-12-07T09:54:54;34.10;;;9.20;;
3133;SDS011;1577;49.912;10.924;2022-12-07T09:57:23;37.17;;;10.07;;
3133;SDS011;1577;49.912;10.924;2022-12-07T09:59:51;37.13;;;10.33;;
3133;SDS011;1577;49.912;10.924;2022-12-07T10:02:21;31.60;;;9.43;;
3133;SDS011;1577;49.912;10.924;2022-12-07T10:04:49;33.97;;;9.57;;
3133;SDS011;1577;49.912;10.924;2022-12-07T10:07:15;40.27;;;11.40;;
3133;SDS011;1577;49.912;10.924;2022-12-07T10:09:44;40.33;;;12.80;;
3133;SDS011;1577;49.912;10.924;2022-12-07T10:12:11;37.97;;;11.23;;
3133;SDS011;1577;49.912;10.924;2022-12-07T10:14:39;52.97;;;14.17;;
3133;SDS011;1577;49.912;10.924;2022-12-07T10:19:50;37.73;;;11.70;;
3133;SDS011;1577;49.912;10.924;2022-12-07T10:22:16;36.80;;;11.50;;
3133;SDS011;1577;49.912;10.924;2022-12-07T10:24:43;41.77;;;13.63;;
3133;SDS011;1577;49.912;10.924;2022-12-07T10:27:19;45.07;;;13.50;;
3133;SDS011;1577;49.912;10.924;2022-12-07T10:29:47;38.17;;;12.23;;
3133;SDS011;1577;49.912;10.924;2022-12-07T10:34:42;50.30;;;17.17;;
3133;SDS011;1577;49.912;10.924;2022-12-07T10:39:48;35.50;;;9.80;;
3133;SDS011;1577;49.912;10.924;2022-12-07T10:42:21;41.17;;;15.37;;
3133;SDS011;1577;49.912;10.924;2022-12-07T10:44:48;38.70;;;12.60;;
3133;SDS011;1577;49.912;10.924;2022-12-07T10:57:38;34.20;;;9.83;;
3133;SDS011;1577;49.912;10.924;2022-12-07T11:05:23;30.80;;;7.50;;
3133;SDS011;1577;49.912;10.924;2022-12-07T11:15:42;32.37;;;7.63;;
3133;SDS011;1577;49.912;10.924;2022-12-07T11:24:17;33.17;;;8.10;;
3133;SDS011;1577;49.912;10.924;2022-12-07T11:29:22;30.60;;;6.87;;
3133;SDS011;1577;49.912;10.924;2022-12-07T11:34:33;31.03;;;7.70;;
3133;SDS011;1577;49.912;10.924;2022-12-07T11:37:00;29.53;;;7.00;;
3133;SDS011;1577;49.912;10.924;2022-12-07T11:39:36;29.37;;;7.47;;
3133;SDS011;1577;49.912;10.924;2022-12-07T11:42:06;30.63;;;7.53;;
3133;SDS011;1577;49.912;10.924;2022-12-07T11:44:34;32.10;;;8.13;;
3133;SDS011;1577;49.912;10.924;2022-12-07T11:47:09;28.50;;;6.00;;
3133;SDS011;1577;49.912;10.924;2022-12-07T11:52:05;30.03;;;6.20;;
3133;SDS011;1577;49.912;10.924;2022-12-07T11:54:34;50.30;;;14.80;;
3133;SDS011;1577;49.912;10.924;2022-12-07T11:57:07;36.97;;;9.50;;
3133;SDS011;1577;49.912;10.924;2022-12-07T11:59:38;37.87;;;9.97;;
3133;SDS011;1577;49.912;10.924;2022-12-07T12:02:24;33.30;;;9.13;;
3133;SDS011;1577;49.912;10.924;2022-12-07T12:07:20;33.43;;;7.97;;
3133;SDS011;1577;49.912;10.924;2022-12-07T12:10:34;32.80;;;8.97;;
3133;SDS011;1577;49.912;10.924;2022-12-07T12:20:29;30.93;;;7.57;;
3133;SDS011;1577;49.912;10.924;2022-12-07T12:22:58;27.60;;;6.67;;
3133;SDS011;1577;49.912;10.924;2022-12-07T12:25:27;33.70;;;8.10;;
3133;SDS011;1577;49.912;10.924;2022-12-07T12:27:55;30.70;;;8.10;;
3133;SDS011;1577;49.912;10.924;2022-12-07T12:30:25;32.67;;;10.67;;
3133;SDS011;1577;49.912;10.924;2022-12-07T12:32:52;34.37;;;8.90;;
3133;SDS011;1577;49.912;10.924;2022-12-07T12:35:29;31.93;;;8.47;;
3133;SDS011;1577;49.912;10.924;2022-12-07T12:37:57;28.60;;;7.53;;
3133;SDS011;1577;49.912;10.924;2022-12-07T12:40:42;30.87;;;6.40;;
3133;SDS011;1577;49.912;10.924;2022-12-07T12:43:39;23.93;;;6.07;;
3133;SDS011;1577;49.912;10.924;2022-12-07T12:48:39;28.00;;;6.87;;
3133;SDS011;1577;49.912;10.924;2022-12-07T12:53:49;23.40;;;5.80;;
3133;SDS011;1577;49.912;10.924;2022-12-07T12:58:44;23.97;;;6.50;;
3133;SDS011;1577;49.912;10.924;2022-12-07T13:03:56;22.07;;;5.47;;
3133;SDS011;1577;49.912;10.924;2022-12-07T13:08:52;22.03;;;5.77;;
3133;SDS011;1577;49.912;10.924;2022-12-07T13:11:20;24.97;;;6.67;;
3133;SDS011;1577;49.912;10.924;2022-12-07T13:13:50;21.90;;;5.80;;
3133;SDS011;1577;49.912;10.924;2022-12-07T13:16:36;22.30;;;6.43;;
3133;SDS011;1577;49.912;10.924;2022-12-07T13:19:02;20.40;;;5.70;;
3133;SDS011;1577;49.912;10.924;2022-12-07T13:23:55;19.47;;;5.03;;
3133;SDS011;1577;49.912;10.924;2022-12-07T13:29:07;20.20;;;5.50;;
3133;SDS011;1577;49.912;10.924;2022-12-07T13:31:46;22.70;;;5.50;;
3133;SDS011;1577;49.912;10.924;2022-12-07T13:36:55;24.13;;;6.13;;
3133;SDS011;1577;49.912;10.924;2022-12-07T13:39:25;23.53;;;5.37;;
3133;SDS011;1577;49.912;10.924;2022-12-07T13:41:52;22.17;;;5.77;;
3133;SDS011;1577;49.912;10.924;2022-12-07T13:44:19;22.17;;;5.10;;
3133;SDS011;1577;49.912;10.924;2022-12-07T13:51:47;22.63;;;4.27;;
3133;SDS011;1577;49.912;10.924;2022-12-07T13:54:14;22.50;;;4.67;;
3133;SDS011;1577;49.912;10.924;2022-12-07T13:56:40;23.70;;;5.30;;
3133;SDS011;1577;49.912;10.924;2022-12-07T13:59:16;29.77;;;8.43;;
3133;SDS011;1577;49.912;10.924;2022-12-07T14:01:44;36.93;;;10.90;;
3133;SDS011;1577;49.912;10.924;2022-12-07T14:04:37;27.43;;;7.97;;
3133;SDS011;1577;49.912;10.924;2022-12-07T14:09:52;33.10;;;9.93;;
3133;SDS011;1577;49.912;10.924;2022-12-07T14:12:18;31.20;;;8.50;;
3133;SDS011;1577;49.912;10.924;2022-12-07T14:14:46;49.00;;;12.40;;
3133;SDS011;1577;49.912;10.924;2022-12-07T14:17:21;88.00;;;31.00;;
3133;SDS011;1577;49.912;10.924;2022-12-07T14:25:15;56.80;;;17.70;;
3133;SDS011;1577;49.912;10.924;2022-12-07T14:27:56;29.13;;;10.07;;
3133;SDS011;1577;49.912;10.924;2022-12-07T14:30:27;24.13;;;6.00;;
3133;SDS011;1577;49.912;10.924;2022-12-07T14:32:55;23.60;;;6.23;;
3133;SDS011;1577;49.912;10.924;2022-12-07T14:35:22;24.27;;;6.57;;
3133;SDS011;1577;49.912;10.924;2022-12-07T14:37:49;21.23;;;4.73;;
3133;SDS011;1577;49.912;10.924;2022-12-07T14:40:19;24.13;;;5.50;;
3133;SDS011;1577;49.912;10.924;2022-12-07T14:42:46;22.93;;;5.60;;
3133;SDS011;1577;49.912;10.924;2022-12-07T14:45:14;21.70;;;5.53;;
3133;SDS011;1577;49.912;10.924;2022-12-07T14:47:41;25.23;;;6.90;;
3133;SDS011;1577;49.912;10.924;2022-12-07T14:50:07;21.90;;;5.17;;
3133;SDS011;1577;49.912;10.924;2022-12-07T14:52:34;17.30;;;2.53;;
3133;SDS011;1577;49.912;10.924;2022-12-07T14:55:00;20.20;;;3.87;;
3133;SDS011;1577;49.912;10.924;2022-12-07T14:57:26;21.10;;;4.30;;
3133;SDS011;1577;49.912;10.924;2022-12-07T14:59:52;17.40;;;3.90;;
3133;SDS011;1577;49.912;10.924;2022-12-07T15:02:18;18.00;;;3.10;;
3133;SDS011;1577;49.912;10.924;2022-12-07T15:04:44;19.03;;;2.63;;
3133;SDS011;1577;49.912;10.924;2022-12-07T15:07:13;21.97;;;4.30;;
3133;SDS011;1577;49.912;10.924;2022-12-07T15:09:40;22.00;;;3.17;;
3133;SDS011;1577;49.912;10.924;2022-12-07T15:12:06;26.75;;;4.22;;
3133;SDS011;1577;49.912;10.924;2022-12-07T15:14:32;27.00;;;4.13;;
3133;SDS011;1577;49.912;10.924;2022-12-07T15:17:01;33.17;;;5.83;;
3133;SDS011;1577;49.912;10.924;2022-12-07T15:19:27;30.25;;;5.80;;
3133;SDS011;1577;49.912;10.924;2022-12-07T15:21:54;38.05;;;9.32;;
3133;SDS011;1577;49.912;10.924;2022-12-07T15:24:20;36.70;;;7.60;;
3133;SDS011;1577;49.912;10.924;2022-12-07T15:26:46;36.10;;;7.40;;
3133;SDS011;1577;49.912;10.924;2022-12-07T15:29:12;34.30;;;7.37;;
3133;SDS011;1577;49.912;10.924;2022-12-07T15:31:40;38.78;;;8.52;;
3133;SDS011;1577;49.912;10.924;2022-12-07T15:34:06;37.97;;;9.32;;
3133;SDS011;1577;49.912;10.924;2022-12-07T15:36:33;42.63;;;9.50;;
3133;SDS011;1577;49.912;10.924;2022-12-07T15:38:59;39.77;;;9.80;;
3133;SDS011;1577;49.912;10.924;2022-12-07T15:41:25;39.37;;;10.30;;
3133;SDS011;1577;49.912;10.924;2022-12-07T15:43:51;42.50;;;8.37;;
3133;SDS011;1577;49.912;10.924;2022-12-07T15:46:37;39.93;;;9.43;;
3133;SDS011;1577;49.912;10.924;2022-12-07T15:49:04;37.92;;;9.10;;
3133;SDS011;1577;49.912;10.924;2022-12-07T15:51:30;41.10;;;8.60;;
3133;SDS011;1577;49.912;10.924;2022-12-07T15:53:57;39.23;;;8.70;;
3133;SDS011;1577;49.912;10.924;2022-12-07T15:56:23;38.67;;;8.20;;
3133;SDS011;1577;49.912;10.924;2022-12-07T15:58:52;37.27;;;8.10;;
3133;SDS011;1577;49.912;10.924;2022-12-07T16:01:18;35.60;;;6.60;;
3133;SDS011;1577;49.912;10.924;2022-12-07T16:03:45;38.10;;;7.10;;
3133;SDS011;1577;49.912;10.924;2022-12-07T16:06:12;37.13;;;6.80;;
3133;SDS011;1577;49.912;10.924;2022-12-07T16:08:41;37.63;;;8.33;;
3133;SDS011;1577;49.912;10.924;2022-12-07T16:11:07;38.13;;;8.10;;
3133;SDS011;1577;49.912;10.924;2022-12-07T16:13:34;36.10;;;6.67;;
3133;SDS011;1577;49.912;10.924;2022-12-07T16:16:07;38.17;;;8.00;;
3133;SDS011;1577;49.912;10.924;2022-12-07T16:18:33;39.70;;;7.10;;
3133;SDS011;1577;49.912;10.924;2022-12-07T16:20:59;38.33;;;6.63;;
3133;SDS011;1577;49.912;10.924;2022-12-07T16:23:25;37.83;;;6.47;;
3133;SDS011;1577;49.912;10.924;2022-12-07T16:25:51;42.10;;;8.43;;
3133;SDS011;1577;49.912;10.924;2022-12-07T16:28:17;48.38;;;10.07;;
3133;SDS011;1577;49.912;10.924;2022-12-07T16:30:43;45.00;;;8.90;;
3133;SDS011;1577;49.912;10.924;2022-12-07T16:33:09;41.90;;;8.73;;
3133;SDS011;1577;49.912;10.924;2022-12-07T16:35:37;38.97;;;7.35;;
3133;SDS011;1577;49.912;10.924;2022-12-07T16:38:05;37.47;;;6.77;;
3133;SDS011;1577;49.912;10.924;2022-12-07T16:40:31;39.10;;;7.27;;
3133;SDS011;1577;49.912;10.924;2022-12-07T16:42:57;39.13;;;7.00;;
3133;SDS011;1577;49.912;10.924;2022-12-07T16:45:23;38.50;;;7.20;;
3133;SDS011;1577;49.912;10.924;2022-12-07T16:47:49;35.93;;;7.50;;
3133;SDS011;1577;49.912;10.924;2022-12-07T16:50:15;34.43;;;7.40;;